Arabia, CA

5:54 PM PDT on August 30, 2016 (GMT -0700)
Chanticlear Drive | | Change Station

Elev -62 ft 33.63 °N, 116.25 °W | Updated 2 minutes ago

Clear
Clear
108.9 °F
Feels Like 109 °F
N
1.2
Wind Variable Wind from ESE
Gusts 5.6 mph

Today
High -- | Low -- °F
--% Chance of Precip.
Yesterday
High -- | Low -- °F
Precip. -- in
Pressure 29.63 in
Visibility 10.0 miles
Clouds Clear
Heat Index 109 °F
Dew Point 57 °F
Humidity 18%
Rainfall Not available.
Snow Depth Not available.
6:17 AM 7:11 PM
Waning Crescent, 2% visible
METAR KTRM 302352Z AUTO 16009KT 10SM CLR 44/04 A2962 RMK AO2 SLP033 T04440039 10456 20406 56018 TSNO
Pressure 29.63 in
Visibility 10.0 miles
Clouds Clear
Heat Index 109 °F
Dew Point 57 °F
Humidity 18%
Rainfall Not available.
Snow Depth Not available.
6:17 AM 7:11 PM
Waning Crescent, 2% visible
METAR KTRM 302352Z AUTO 16009KT 10SM CLR 44/04 A2962 RMK AO2 SLP033 T04440039 10456 20406 56018 TSNO

10-Day Weather Forecast

Almanac

Astronomy

Aug. 30, 2016 Rise Set
Actual Time
Civil Twilight
Nautical Twilight
Astronomical Twilight
Moon
Length of Visible Light
Length of Day
Tomorrow will be .
, % of the Moon is Illuminated

Today's Extremes

State Highs State Lows

Community

WunderPhotos

Upload Photos

1,935,964 photos uploaded!

WunderBlog® & News

Nearby

Air Quality

  Air Quality AQ Index Pollutant
Not available.

Snow Depth

Station Depth Elevation

Earthquake Activity

City Distance Mag. Time & Date
Minimum magnitude displayed is 2.5.

Coastal Water Temperatures

Place Temperature

Stations

Nearby Weather Stations

Station Location Temp. Windchill Dew Point Humidity Wind Precip. Elev Updated Type
                   

Watches & Warnings

There are currently no watches in effect.